^^

New Milford Station Historical Data

 
Daily Summary for November 14, 2019 Units:  English    Metric   Both
Daily Weekly Monthly Yearly Custom
  Current: High: Low: Average:
Temperature: 39.1 °F 40.3 °F 17.9 °F 26.4 °F
Dew Point: 28.3 °F 30.2 °F 15.5 °F 20.6 °F
Humidity: 65% 92% 61% 79%
Wind Speed: 0mph 5mph 0mph 0.4mph
Wind Gust: 1mph 10mph - -
WindCalm - - WSW
Pressure: 30.28 in 30.41 in 30.28 in -
Precipitation: 0 in      
Historical Graphs
 
 
Tabular Data for November 14, 2019
Time Temperature Dew Point Pressure Wind Wind Speed Wind Gust Humidity Rainfall Rate (Hourly) solar
00:00 20 °F 15.7 °F 30.38 in Calm     83% 0 in WeatherDisplay:10.37 W/m2
00:05 20.1 °F 16 °F 30.38 in Calm     84% 0 in WeatherDisplay:10.37 W/m2
00:10 20 °F 15.9 °F 30.38 in Calm     84% 0 in WeatherDisplay:10.37 W/m2
00:15 19.9 °F 15.8 °F 30.38 in Calm     84% 0 in WeatherDisplay:10.37 W/m2
00:20 19.9 °F 15.9 °F 30.38 in Calm     84% 0 in WeatherDisplay:10.37 W/m2
00:25 20 °F 16.2 °F 30.38 in Calm     85% 0 in WeatherDisplay:10.37 W/m2
00:30 20.1 °F 16.3 °F 30.38 in Calm     85% 0 in WeatherDisplay:10.37 W/m2
00:35 20.2 °F 16.4 °F 30.38 in Calm     85% 0 in WeatherDisplay:10.37 W/m2
00:40 20.1 °F 16.3 °F 30.38 in Calm     85% 0 in WeatherDisplay:10.37 W/m2
00:45 20.1 °F 16.1 °F 30.38 in Calm     84% 0 in WeatherDisplay:10.37 W/m2
00:50 20.2 °F 16.4 °F 30.38 in Calm     85% 0 in WeatherDisplay:10.37 W/m2
00:55 20.2 °F 16.4 °F 30.38 in Calm     85% 0 in WeatherDisplay:10.37 W/m2
01:00 20.1 °F 16.3 °F 30.38 in Calm     85% 0 in WeatherDisplay:10.37 W/m2
01:05 19.9 °F 16.1 °F 30.38 in Calm     85% 0 in WeatherDisplay:10.37 W/m2
01:10 19.9 °F 16.1 °F 30.38 in Calm     85% 0 in WeatherDisplay:10.37 W/m2
01:15 19.7 °F 16.2 °F 30.38 in Calm     86% 0 in WeatherDisplay:10.37 W/m2
01:20 19.9 °F 16.4 °F 30.39 in Calm     86% 0 in WeatherDisplay:10.37 W/m2
01:25 19.9 °F 16.4 °F 30.39 in Calm     86% 0 in WeatherDisplay:10.37 W/m2
01:30 19.8 °F 16.3 °F 30.39 in Calm     86% 0 in WeatherDisplay:10.37 W/m2
01:35 19.9 °F 16.4 °F 30.39 in Calm     86% 0 in WeatherDisplay:10.37 W/m2
01:40 19.7 °F 16.2 °F 30.39 in Calm     86% 0 in WeatherDisplay:10.37 W/m2
01:45 19.6 °F 16.1 °F 30.39 in Calm     86% 0 in WeatherDisplay:10.37 W/m2
01:50 19.7 °F 16.5 °F 30.39 in Calm     87% 0 in WeatherDisplay:10.37 W/m2
01:55 19.7 °F 16.5 °F 30.39 in Calm     87% 0 in WeatherDisplay:10.37 W/m2
02:00 19.7 °F 16.5 °F 30.39 in Calm     87% 0 in WeatherDisplay:10.37 W/m2
02:05 19.6 °F 16.6 °F 30.39 in Calm     88% 0 in WeatherDisplay:10.37 W/m2
02:10 19.9 °F 16.9 °F 30.39 in Calm     88% 0 in WeatherDisplay:10.37 W/m2
02:15 19.8 °F 16.6 °F 30.39 in Calm     87% 0 in WeatherDisplay:10.37 W/m2
02:20 19.8 °F 16.5 °F 30.39 in Calm     87% 0 in WeatherDisplay:10.37 W/m2
02:25 19.5 °F 16 °F 30.39 in Calm     86% 0 in WeatherDisplay:10.37 W/m2
02:30 19.5 °F 15.9 °F 30.38 in Calm     86% 0 in WeatherDisplay:10.37 W/m2
02:35 19.3 °F 16.1 °F 30.38 in Calm     87% 0 in WeatherDisplay:10.37 W/m2
02:40 19.3 °F 16.3 °F 30.39 in Calm   1 mph 88% 0 in WeatherDisplay:10.37 W/m2
02:45 19.3 °F 16.3 °F 30.38 in Calm     88% 0 in WeatherDisplay:10.37 W/m2
02:50 19.1 °F 16.1 °F 30.38 in Calm     88% 0 in WeatherDisplay:10.37 W/m2
02:55 19 °F 16 °F 30.38 in Calm     88% 0 in WeatherDisplay:10.37 W/m2
03:00 19 °F 16.1 °F 30.38 in Calm     88% 0 in WeatherDisplay:10.37 W/m2
03:05 18.8 °F 15.8 °F 30.38 in Calm     88% 0 in WeatherDisplay:10.37 W/m2
03:10 18.8 °F 15.8 °F 30.38 in Calm     88% 0 in WeatherDisplay:10.37 W/m2
03:15 18.7 °F 15.7 °F 30.38 in Calm     88% 0 in WeatherDisplay:10.37 W/m2
03:20 18.8 °F 15.9 °F 30.39 in Calm     88% 0 in WeatherDisplay:10.37 W/m2
03:25 18.8 °F 15.8 °F 30.38 in Calm     88% 0 in WeatherDisplay:10.37 W/m2
03:30 18.8 °F 15.8 °F 30.38 in Calm     88% 0 in WeatherDisplay:10.37 W/m2
03:35 18.9 °F 15.9 °F 30.38 in Calm     88% 0 in WeatherDisplay:10.37 W/m2
03:40 19.1 °F 16.4 °F 30.38 in Calm     89% 0 in WeatherDisplay:10.37 W/m2
03:45 19.2 °F 16.2 °F 30.38 in Calm     88% 0 in WeatherDisplay:10.37 W/m2
03:50 19.5 °F 16.5 °F 30.38 in Calm     88% 0 in WeatherDisplay:10.37 W/m2
03:55 19.6 °F 16.7 °F 30.38 in Calm     88% 0 in WeatherDisplay:10.37 W/m2
04:00 19.7 °F 16.4 °F 30.38 in Calm     87% 0 in WeatherDisplay:10.37 W/m2
04:05 19.7 °F 16.5 °F 30.39 in Calm     87% 0 in WeatherDisplay:10.37 W/m2
04:10 19.8 °F 16.6 °F 30.39 in Calm     87% 0 in WeatherDisplay:10.37 W/m2
04:15 19.6 °F 16.1 °F 30.38 in Calm     86% 0 in WeatherDisplay:10.37 W/m2
04:20 19.6 °F 16 °F 30.38 in Calm     86% 0 in WeatherDisplay:10.37 W/m2
04:25 19.3 °F 16.1 °F 30.38 in Calm     87% 0 in WeatherDisplay:10.37 W/m2
04:30 19.2 °F 15.9 °F 30.38 in Calm     87% 0 in WeatherDisplay:10.37 W/m2
04:35 19.1 °F 16.1 °F 30.38 in Calm     88% 0 in WeatherDisplay:10.37 W/m2
04:40 19.1 °F 16.1 °F 30.38 in Calm     88% 0 in WeatherDisplay:10.37 W/m2
04:45 19 °F 16.3 °F 30.39 in Calm     89% 0 in WeatherDisplay:10.37 W/m2
04:50 19 °F 16.2 °F 30.39 in Calm     89% 0 in WeatherDisplay:10.37 W/m2
04:55 18.8 °F 15.8 °F 30.38 in Calm     88% 0 in WeatherDisplay:10.37 W/m2
05:00 18.4 °F 15.7 °F 30.38 in Calm     89% 0 in WeatherDisplay:10.37 W/m2
05:05 18.5 °F 15.8 °F 30.39 in Calm     89% 0 in WeatherDisplay:10.37 W/m2
05:10 18.4 °F 15.7 °F 30.38 in Calm     89% 0 in WeatherDisplay:10.37 W/m2
05:15 18.3 °F 15.9 °F 30.38 in Calm     90% 0 in WeatherDisplay:10.37 W/m2
05:20 18.3 °F 15.8 °F 30.38 in Calm     90% 0 in WeatherDisplay:10.37 W/m2
05:25 18.2 °F 15.8 °F 30.38 in Calm     90% 0 in WeatherDisplay:10.37 W/m2
05:30 18.1 °F 15.7 °F 30.38 in Calm     90% 0 in WeatherDisplay:10.37 W/m2
05:35 18 °F 15.6 °F 30.38 in Calm     90% 0 in WeatherDisplay:10.37 W/m2
05:40 18.2 °F 15.7 °F 30.38 in Calm     90% 0 in WeatherDisplay:10.37 W/m2
05:45 18.1 °F 15.7 °F 30.38 in Calm     90% 0 in WeatherDisplay:10.37 W/m2
05:50 18.1 °F 15.7 °F 30.38 in Calm     90% 0 in WeatherDisplay:10.37 W/m2
05:55 18.2 °F 15.7 °F 30.38 in Calm     90% 0 in WeatherDisplay:10.37 W/m2
06:00 18.2 °F 15.7 °F 30.38 in Calm     90% 0 in WeatherDisplay:10.37 W/m2
06:05 18.2 °F 15.8 °F 30.38 in Calm     90% 0 in WeatherDisplay:10.37 W/m2
06:10 18.1 °F 15.7 °F 30.38 in Calm     90% 0 in WeatherDisplay:10.37 W/m2
06:15 18.1 °F 15.6 °F 30.38 in Calm     90% 0 in WeatherDisplay:10.37 W/m2
06:20 18 °F 15.6 °F 30.39 in Calm     90% 0 in WeatherDisplay:10.37 W/m2
06:25 17.9 °F 15.5 °F 30.39 in Calm     90% 0 in WeatherDisplay:10.37 W/m2
06:30 18.1 °F 15.9 °F 30.39 in Calm     91% 0 in WeatherDisplay:10.37 W/m2
06:35 18.1 °F 15.6 °F 30.39 in Calm     90% 0 in WeatherDisplay:10.37 W/m2
06:40 18.1 °F 15.9 °F 30.38 in Calm     91% 0 in WeatherDisplay:10.37 W/m2
06:45 18.2 °F 16 °F 30.38 in Calm     91% 0 in WeatherDisplay:10.37 W/m2
06:50 18.2 °F 16.3 °F 30.38 in Calm     92% 0 in WeatherDisplay:10.37 W/m2
06:55 18.4 °F 16.3 °F 30.39 in Calm     91% 0 in WeatherDisplay:10.37 W/m2
07:00 18.6 °F 16.4 °F 30.39 in Calm     91% 0 in WeatherDisplay:10.37 W/m2
07:05 18.6 °F 16.4 °F 30.39 in Calm     91% 0 in WeatherDisplay:10.37 W/m2
07:10 18.7 °F 16.5 °F 30.39 in Calm     91% 0 in WeatherDisplay:10.37 W/m2
07:15 18.8 °F 16.7 °F 30.39 in Calm     91% 0 in WeatherDisplay:10.37 W/m2
07:20 19.1 °F 16.9 °F 30.40 in Calm     91% 0 in WeatherDisplay:10.37 W/m2
07:25 19.3 °F 17.1 °F 30.40 in Calm     91% 0 in WeatherDisplay:10.37 W/m2
07:30 19.5 °F 17.3 °F 30.39 in Calm     91% 0 in WeatherDisplay:10.37 W/m2
07:35 19.8 °F 17.3 °F 30.40 in Calm     90% 0 in WeatherDisplay:10.37 W/m2
07:40 19.9 °F 17.4 °F 30.40 in Calm     90% 0 in WeatherDisplay:10.37 W/m2
07:45 20.4 °F 17.7 °F 30.40 in Calm     89% 0 in WeatherDisplay:10.37 W/m2
07:50 20.8 °F 18.3 °F 30.39 in Calm     90% 0 in WeatherDisplay:10.37 W/m2
07:55 21.1 °F 18.4 °F 30.39 in Calm     89% 0 in WeatherDisplay:10.37 W/m2
08:00 21.3 °F 18.5 °F 30.40 in Calm     89% 0 in WeatherDisplay:10.37 W/m2
08:05 21.5 °F 18.5 °F 30.40 in Calm     88% 0 in WeatherDisplay:10.37 W/m2
08:10 22.1 °F 19.1 °F 30.41 in Calm     88% 0 in WeatherDisplay:10.37 W/m2
08:15 22.6 °F 19.3 °F 30.41 in Calm     87% 0 in WeatherDisplay:10.37 W/m2
08:20 23.1 °F 19.5 °F 30.41 in Calm     86% 0 in WeatherDisplay:10.37 W/m2
08:25 23.5 °F 19.1 °F 30.40 in Calm     83% 0 in WeatherDisplay:10.37 W/m2
08:30 23.8 °F 18.3 °F 30.40 in Calm     79% 0 in WeatherDisplay:10.37 W/m2
08:35 24.4 °F 18.5 °F 30.40 in Calm     78% 0 in WeatherDisplay:10.37 W/m2
08:40 24.7 °F 18.5 °F 30.40 in Calm     77% 0 in WeatherDisplay:10.37 W/m2
08:45 25 °F 19.1 °F 30.39 in Calm     78% 0 in WeatherDisplay:10.37 W/m2
08:50 25.3 °F 19.4 °F 30.39 in Calm     78% 0 in WeatherDisplay:10.37 W/m2
08:55 25.4 °F 19.5 °F 30.40 in Calm     78% 0 in WeatherDisplay:10.37 W/m2
09:00 25.8 °F 19.9 °F 30.39 in Calm     78% 0 in WeatherDisplay:10.37 W/m2
09:05 26 °F 19.8 °F 30.40 in Calm     77% 0 in WeatherDisplay:10.37 W/m2
09:10 26.4 °F 20.2 °F 30.39 in Calm     77% 0 in WeatherDisplay:10.37 W/m2
09:15 26.8 °F 20.5 °F 30.40 in Calm     77% 0 in WeatherDisplay:10.37 W/m2
09:20 27 °F 20.4 °F 30.39 in Calm     76% 0 in WeatherDisplay:10.37 W/m2
09:25 26.8 °F 19 °F 30.40 in SE 1 mph 3 mph 72% 0 in WeatherDisplay:10.37 W/m2
09:30 27.3 °F 19.8 °F 30.39 in Calm   1 mph 73% 0 in WeatherDisplay:10.37 W/m2
09:35 27.9 °F 20.4 °F 30.39 in Calm     73% 0 in WeatherDisplay:10.37 W/m2
09:40 28.3 °F 20.7 °F 30.39 in Calm     73% 0 in WeatherDisplay:10.37 W/m2
09:45 28.8 °F 21.2 °F 30.39 in Calm     73% 0 in WeatherDisplay:10.37 W/m2
09:50 29 °F 20.8 °F 30.39 in Calm   1 mph 71% 0 in WeatherDisplay:10.37 W/m2
09:55 29.3 °F 21.4 °F 30.39 in Calm     72% 0 in WeatherDisplay:10.37 W/m2
10:00 29.7 °F 21.8 °F 30.39 in Calm     72% 0 in WeatherDisplay:10.37 W/m2
10:05 29.8 °F 21.9 °F 30.39 in Calm   4 mph 72% 0 in WeatherDisplay:10.37 W/m2
10:10 30.5 °F 22.5 °F 30.39 in Calm   3 mph 72% 0 in WeatherDisplay:10.37 W/m2
10:15 31.1 °F 23.1 °F 30.38 in Calm     72% 0 in WeatherDisplay:10.37 W/m2
10:20 31.8 °F 23.8 °F 30.38 in Calm     72% 0 in WeatherDisplay:10.37 W/m2
10:25 32.5 °F 24.8 °F 30.37 in Calm     73% 0 in WeatherDisplay:10.37 W/m2
10:30 33.3 °F 24.9 °F 30.37 in WNW 2 mph 5 mph 71% 0 in WeatherDisplay:10.37 W/m2
10:35 33.7 °F 25 °F 30.37 in NW 2 mph 7 mph 70% 0 in WeatherDisplay:10.37 W/m2
10:40 33.8 °F 25.4 °F 30.36 in NW 2 mph 7 mph 71% 0 in WeatherDisplay:10.37 W/m2
10:45 33.9 °F 25.8 °F 30.36 in NW 1 mph 5 mph 72% 0 in WeatherDisplay:10.37 W/m2
10:50 34.2 °F 26.1 °F 30.36 in Calm   2 mph 72% 0 in WeatherDisplay:10.37 W/m2
10:55 34.5 °F 26.4 °F 30.36 in WNW 1 mph 2 mph 72% 0 in WeatherDisplay:10.37 W/m2
11:00 34.6 °F 26.5 °F 30.36 in Calm   1 mph 72% 0 in WeatherDisplay:10.37 W/m2
11:05 35.2 °F 27.1 °F 30.36 in WNW 1 mph 4 mph 72% 0 in WeatherDisplay:10.37 W/m2
11:10 35.5 °F 26 °F 30.35 in West 2 mph 7 mph 68% 0 in WeatherDisplay:10.37 W/m2
11:15 35.8 °F 27 °F 30.34 in Calm   2 mph 70% 0 in WeatherDisplay:10.37 W/m2
11:20 36.1 °F 27.2 °F 30.34 in WSW 1 mph 4 mph 70% 0 in WeatherDisplay:10.37 W/m2
11:25 36.4 °F 27.6 °F 30.34 in SW 1 mph 3 mph 70% 0 in WeatherDisplay:10.37 W/m2
11:30 36.8 °F 27.2 °F 30.34 in WSW 2 mph 6 mph 68% 0 in WeatherDisplay:10.37 W/m2
11:35 36.8 °F 27.2 °F 30.34 in Calm   3 mph 68% 0 in WeatherDisplay:10.37 W/m2
11:40 37 °F 27.1 °F 30.34 in Calm   3 mph 67% 0 in WeatherDisplay:10.37 W/m2
11:45 37.1 °F 26.8 °F 30.33 in West 1 mph 2 mph 66% 0 in WeatherDisplay:10.37 W/m2
11:50 37.2 °F 27.2 °F 30.33 in Calm   4 mph 67% 0 in WeatherDisplay:10.37 W/m2
11:55 37.1 °F 27.1 °F 30.32 in Calm   3 mph 67% 0 in WeatherDisplay:10.37 W/m2
12:00 37.4 °F 27.8 °F 30.32 in West 1 mph 5 mph 68% 0 in WeatherDisplay:10.37 W/m2
12:05 37.8 °F 28.2 °F 30.32 in West 1 mph 3 mph 68% 0 in WeatherDisplay:10.37 W/m2
12:10 38.3 °F 27.5 °F 30.32 in West 1 mph 4 mph 65% 0 in WeatherDisplay:10.37 W/m2
12:15 38.2 °F 27.4 °F 30.32 in WSW 5 mph 8 mph 65% 0 in WeatherDisplay:10.37 W/m2
12:20 38.3 °F 27.9 °F 30.32 in SW 5 mph 10 mph 66% 0 in WeatherDisplay:10.37 W/m2
12:25 38.6 °F 27.8 °F 30.32 in SW 3 mph 9 mph 65% 0 in WeatherDisplay:10.37 W/m2
12:30 39 °F 27.9 °F 30.32 in WSW 2 mph 9 mph 64% 0 in WeatherDisplay:10.37 W/m2
12:35 39.4 °F 28.6 °F 30.32 in SW 3 mph 6 mph 65% 0 in WeatherDisplay:10.37 W/m2
12:40 39.8 °F 28.6 °F 30.32 in WSW 5 mph 9 mph 64% 0 in WeatherDisplay:10.37 W/m2
12:45 39.6 °F 28.4 °F 30.31 in WSW 2 mph 8 mph 64% 0 in WeatherDisplay:10.37 W/m2
12:50 39.6 °F 28.8 °F 30.31 in WSW 2 mph 7 mph 65% 0 in WeatherDisplay:10.37 W/m2
12:55 39.5 °F 28.7 °F 30.31 in WSW 2 mph 9 mph 65% 0 in WeatherDisplay:10.37 W/m2
13:00 39.5 °F 29 °F 30.31 in WSW 2 mph 9 mph 66% 0 in WeatherDisplay:10.37 W/m2
13:05 39.7 °F 29.2 °F 30.31 in Calm   7 mph 66% 0 in WeatherDisplay:10.37 W/m2
13:10 39.6 °F 28 °F 30.31 in WSW 2 mph 4 mph 63% 0 in WeatherDisplay:10.37 W/m2
13:15 39.9 °F 28.7 °F 30.31 in WSW 2 mph 4 mph 64% 0 in WeatherDisplay:10.37 W/m2
13:20 39.8 °F 29 °F 30.30 in West 2 mph 5 mph 65% 0 in WeatherDisplay:10.37 W/m2
13:25 39.5 °F 28.7 °F 30.30 in WSW 2 mph 9 mph 65% 0 in WeatherDisplay:10.37 W/m2
13:30 39.5 °F 29.1 °F 30.30 in SW 1 mph 4 mph 66% 0 in WeatherDisplay:10.37 W/m2
13:35 39.7 °F 28.5 °F 30.30 in Calm   3 mph 64% 0 in WeatherDisplay:10.37 W/m2
13:40 39.7 °F 29.3 °F 30.29 in NNW 1 mph 4 mph 66% 0 in WeatherDisplay:10.37 W/m2
13:45 39.9 °F 28.3 °F 30.29 in WNW 2 mph 6 mph 63% 0 in WeatherDisplay:10.37 W/m2
13:50 40.1 °F 28.8 °F 30.29 in West 2 mph 5 mph 64% 0 in WeatherDisplay:10.37 W/m2
13:55 40.3 °F 29.1 °F 30.29 in WSW 2 mph 5 mph 64% 0 in WeatherDisplay:10.37 W/m2
14:00 40.2 °F 28.9 °F 30.29 in Calm   3 mph 64% 0 in WeatherDisplay:10.37 W/m2
14:05 40.3 °F 28.7 °F 30.29 in South 1 mph 3 mph 63% 0 in WeatherDisplay:10.37 W/m2
14:10 40.1 °F 29.3 °F 30.29 in West 1 mph 3 mph 65% 0 in WeatherDisplay:10.37 W/m2
14:15 40.1 °F 28.9 °F 30.28 in WSW 1 mph 5 mph 64% 0 in WeatherDisplay:10.37 W/m2
14:20 40.1 °F 28.5 °F 30.29 in SW 1 mph 3 mph 63% 0 in WeatherDisplay:10.37 W/m2
14:25 40.3 °F 30.2 °F 30.29 in Calm   5 mph 67% 0 in WeatherDisplay:10.37 W/m2
14:30 40.1 °F 28.9 °F 30.30 in Calm   5 mph 64% 0 in WeatherDisplay:10.37 W/m2
14:35 40.1 °F 29.2 °F 30.29 in SW 2 mph 5 mph 65% 0 in WeatherDisplay:10.37 W/m2
14:40 39.9 °F 28.3 °F 30.30 in WSW 2 mph 5 mph 63% 0 in WeatherDisplay:10.37 W/m2
14:45 39.8 °F 27.4 °F 30.29 in Calm   6 mph 61% 0 in WeatherDisplay:10.37 W/m2
14:50 39.8 °F 27.8 °F 30.29 in Calm   3 mph 62% 0 in WeatherDisplay:10.37 W/m2
14:55 39.6 °F 28.5 °F 30.29 in SSW 1 mph 2 mph 64% 0 in WeatherDisplay:10.37 W/m2
15:00 39.5 °F 28.3 °F 30.29 in South 1 mph 3 mph 64% 0 in WeatherDisplay:10.37 W/m2
15:05 39.4 °F 28.6 °F 30.29 in Calm   2 mph 65% 0 in WeatherDisplay:10.37 W/m2
15:10 39.2 °F 28.1 °F 30.29 in Calm   2 mph 64% 0 in WeatherDisplay:10.37 W/m2
15:15 39.1 °F 28.3 °F 30.28 in Calm   1 mph 65% 0 in WeatherDisplay:10.37 W/m2
Compliments of Weather Underground - 1.75 mb